Time;durP1;ratioP1;P1;durP2;ratioP2;P2;SDS_P1;SDS_P2;PMS_P1;PMS_P2;Temp;Humidity;BMP_temperature;BMP_pressure;BME280_temperature;BME280_humidity;BME280_pressure;Samples;Min_cycle;Max_cycle;Signal;HPM_P1;HPM_P2
2022/02/27 00:00:41;;;;;;;10.32;4.92;;;;;;;4.53;68.95;100159.25;1641284;80;21091;-89
2022/02/27 00:03:10;;;;;;;8.85;4.60;;;;;;;4.53;68.65;100163.11;1679197;83;21211;-90
2022/02/27 00:05:37;;;;;;;10.98;4.90;;;;;;;4.53;69.41;100151.52;1670365;85;21004;-90
2022/02/27 00:08:04;;;;;;;10.72;4.40;;;;;;;4.52;68.61;100148.52;1685458;85;21543;-89
2022/02/27 00:10:31;;;;;;;11.73;5.40;;;;;;;4.46;68.48;100156.58;1682020;84;21082;-89
2022/02/27 00:12:57;;;;;;;9.50;4.58;;;;;;;4.47;68.79;100151.85;1679648;84;21004;-90
2022/02/27 00:15:24;;;;;;;11.28;4.97;;;;;;;4.46;68.65;100152.28;1670613;85;21075;-89
2022/02/27 00:17:51;;;;;;;8.93;4.00;;;;;;;4.46;68.49;100145.84;1679558;84;21051;-89
2022/02/27 00:20:18;;;;;;;8.28;4.35;;;;;;;4.46;68.06;100144.55;1707605;82;21577;-88
2022/02/27 00:22:45;;;;;;;9.18;4.53;;;;;;;4.45;68.15;100150.53;1733464;82;21022;-89
2022/02/27 00:25:11;;;;;;;9.25;4.37;;;;;;;4.44;67.18;100137.23;1718099;82;21007;-89
2022/02/27 00:27:38;;;;;;;9.70;3.92;;;;;;;4.46;67.61;100148.42;1731455;82;21040;-89
2022/02/27 00:30:08;;;;;;;10.45;4.67;;;;;;;4.22;67.23;100102.94;1670820;81;21148;-89
2022/02/27 00:32:36;;;;;;;7.97;3.77;;;;;;;4.46;68.27;100151.42;1690498;82;21655;-88
2022/02/27 00:35:05;;;;;;;12.58;4.95;;;;;;;4.47;67.93;100144.98;1661370;80;21064;-90
2022/02/27 00:37:34;;;;;;;8.40;4.40;;;;;;;4.41;66.65;100142.31;1594205;85;21265;-89
2022/02/27 00:40:02;;;;;;;9.80;4.78;;;;;;;4.43;66.97;100151.36;1652229;83;21191;-89
2022/02/27 00:42:30;;;;;;;9.30;4.70;;;;;;;4.39;67.29;100144.85;1712234;82;21072;-89
2022/02/27 00:44:58;;;;;;;6.70;4.25;;;;;;;4.41;66.12;100146.17;1738601;82;21007;-88
2022/02/27 00:47:24;;;;;;;9.15;3.90;;;;;;;4.43;65.69;100144.92;1635554;79;21695;-90
2022/02/27 00:49:51;;;;;;;8.30;3.77;;;;;;;4.45;65.55;100144.52;1629043;88;20991;-88
2022/02/27 00:52:22;;;;;;;9.43;4.22;;;;;;;4.45;66.28;100147.95;1625363;87;21000;-88
2022/02/27 00:54:46;;;;;;;8.10;4.60;;;;;;;4.47;66.03;100153.14;1656405;84;21091;-90
2022/02/27 00:57:13;;;;;;;9.05;4.58;;;;;;;4.49;66.01;100147.59;1665502;85;21171;-89
2022/02/27 00:59:44;;;;;;;10.10;4.40;;;;;;;4.49;65.91;100151.02;1662186;85;21070;-90
2022/02/27 01:02:08;;;;;;;10.30;4.20;;;;;;;4.43;65.39;100149.64;1657167;81;21135;-90
2022/02/27 01:04:34;;;;;;;10.58;4.67;;;;;;;4.43;65.54;100156.08;1654052;85;21057;-88
2022/02/27 01:07:01;;;;;;;9.13;4.53;;;;;;;4.42;65.97;100151.78;1653835;87;21124;-90
2022/02/27 01:09:27;;;;;;;10.93;4.53;;;;;;;4.43;65.75;100153.94;1649589;87;21119;-89
2022/02/27 01:11:54;;;;;;;10.88;4.80;;;;;;;4.44;66.01;100152.68;1656244;87;21091;-89
2022/02/27 01:14:20;;;;;;;12.23;5.10;;;;;;;4.42;66.02;100152.19;1621940;88;21554;-91
2022/02/27 01:16:47;;;;;;;13.22;5.05;;;;;;;4.40;66.47;100148.32;1655340;86;21013;-89
2022/02/27 01:19:14;;;;;;;10.95;5.47;;;;;;;4.38;65.93;100151.30;1688127;82;21546;-88
2022/02/27 01:21:41;;;;;;;9.18;5.05;;;;;;;4.37;66.27;100144.39;1700995;82;21005;-88
2022/02/27 01:24:09;;;;;;;12.82;5.58;;;;;;;4.33;67.45;100139.61;1720042;82;21799;-90
2022/02/27 01:26:36;;;;;;;14.25;5.95;;;;;;;4.33;68.26;100138.75;1670852;82;22089;-88
2022/02/27 01:29:04;;;;;;;15.23;6.67;;;;;;;4.31;69.25;100141.29;1747721;80;21046;-89
2022/02/27 01:31:30;;;;;;;11.15;5.40;;;;;;;4.28;69.66;100141.69;1752382;80;21555;-88
2022/02/27 01:33:57;;;;;;;13.18;5.95;;;;;;;4.24;69.34;100142.05;1732164;82;21016;-87
2022/02/27 01:36:24;;;;;;;11.95;6.10;;;;;;;4.20;70.14;100135.11;1754186;81;21526;-86
2022/02/27 01:41:31;;;;;;;11.73;6.17;;;;;;;4.26;71.52;100139.08;1799508;79;22974;-90
2022/02/27 01:43:58;;;;;;;11.35;5.58;;;;;;;4.18;70.74;100140.66;1730524;81;20995;-89
2022/02/27 01:46:24;;;;;;;10.28;4.87;;;;;;;4.19;69.01;100139.80;1760773;81;21022;-90
2022/02/27 01:48:51;;;;;;;9.83;4.70;;;;;;;4.22;69.47;100142.83;1757447;81;21022;-90
2022/02/27 01:51:17;;;;;;;9.28;4.83;;;;;;;4.23;67.76;100143.30;1761589;80;21041;-90
2022/02/27 01:53:45;;;;;;;8.88;4.67;;;;;;;4.25;66.04;100154.48;1632535;79;21638;-90
2022/02/27 01:56:16;;;;;;;12.47;5.25;;;;;;;4.31;66.80;100143.00;1662943;85;21203;-88
2022/02/27 01:58:43;;;;;;;12.82;5.67;;;;;;;4.26;66.19;100149.77;1670334;84;21137;-89
2022/02/27 02:01:10;;;;;;;12.53;4.72;;;;;;;4.28;66.50;100156.70;1674276;85;21163;-89
2022/02/27 02:03:37;;;;;;;10.15;5.22;;;;;;;4.27;66.14;100160.53;1678647;85;21096;-88
2022/02/27 02:06:04;;;;;;;10.70;4.87;;;;;;;4.26;66.30;100162.64;1702584;82;21079;-89
2022/02/27 02:08:31;;;;;;;8.93;4.85;;;;;;;4.23;66.27;100163.89;1699756;84;21066;-91
2022/02/27 02:11:00;;;;;;;9.60;4.90;;;;;;;4.23;66.16;100160.03;1676773;83;21120;-88
2022/02/27 02:13:27;;;;;;;13.28;5.17;;;;;;;4.18;66.04;100155.67;1641484;87;21072;-88
2022/02/27 02:15:58;;;;;;;10.65;4.83;;;;;;;4.16;65.09;100155.20;1653351;84;21090;-89
2022/02/27 02:18:26;;;;;;;9.65;4.55;;;;;;;4.15;64.82;100153.45;1660993;85;21090;-89
2022/02/27 02:20:55;;;;;;;9.30;4.40;;;;;;;4.14;65.03;100155.59;1680453;84;21099;-89
2022/02/27 02:23:21;;;;;;;9.53;4.30;;;;;;;4.13;64.67;100153.84;1696845;84;21145;-89
2022/02/27 02:25:48;;;;;;;9.48;4.30;;;;;;;4.13;65.12;100152.13;1696457;85;21553;-87
2022/02/27 02:28:15;;;;;;;8.63;3.77;;;;;;;4.13;64.81;100149.56;1696932;84;21502;-92
2022/02/27 02:30:42;;;;;;;9.48;4.58;;;;;;;4.14;65.09;100165.46;1681948;84;21081;-91
2022/02/27 02:33:09;;;;;;;10.30;4.80;;;;;;;4.10;65.17;100161.10;1695715;83;21033;-89
2022/02/27 02:35:38;;;;;;;7.62;4.00;;;;;;;4.11;65.38;100155.09;1688483;82;21031;-87
2022/02/27 02:38:08;;;;;;;8.68;4.00;;;;;;;4.10;64.37;100155.95;1707677;82;21116;-90
2022/02/27 02:40:35;;;;;;;7.37;4.42;;;;;;;4.10;65.07;100156.35;1732409;81;21078;-89
2022/02/27 02:43:05;;;;;;;8.73;4.10;;;;;;;4.12;65.17;100160.70;1702353;81;21188;-89
2022/02/27 02:45:33;;;;;;;9.45;4.75;;;;;;;4.07;65.09;100157.17;1663604;82;21255;-88
2022/02/27 02:48:00;;;;;;;8.45;4.42;;;;;;;4.05;64.62;100158.85;1661397;86;21337;-89
2022/02/27 02:50:28;;;;;;;7.33;4.40;;;;;;;4.07;64.94;100155.88;1660435;84;21237;-89
2022/02/27 02:52:55;;;;;;;9.95;3.80;;;;;;;4.08;64.76;100156.74;1661398;85;21053;-88
2022/02/27 02:55:23;;;;;;;10.78;4.70;;;;;;;4.06;65.06;100160.60;1690350;82;21638;-88
2022/02/27 02:57:50;;;;;;;10.38;4.22;;;;;;;4.06;65.08;100164.46;1668527;86;21245;-88
2022/02/27 03:00:17;;;;;;;8.88;3.95;;;;;;;4.06;64.77;100167.43;1650159;86;21055;-88
2022/02/27 03:02:43;;;;;;;10.10;4.25;;;;;;;4.03;63.19;100157.09;1689387;85;21067;-90
2022/02/27 03:05:11;;;;;;;9.95;3.85;;;;;;;4.04;63.68;100162.67;1695894;85;22101;-87
2022/02/27 03:07:40;;;;;;;8.85;3.27;;;;;;;4.03;63.22;100163.53;1666584;83;21116;-89
2022/02/27 03:10:09;;;;;;;8.95;3.98;;;;;;;4.05;63.67;100167.00;1636732;83;21125;-89
2022/02/27 03:12:37;;;;;;;7.60;3.50;;;;;;;4.05;63.27;100160.14;1634973;84;21238;-88
2022/02/27 03:15:07;;;;;;;12.13;4.65;;;;;;;4.08;63.24;100172.19;1672971;81;21588;-88
2022/02/27 03:17:34;;;;;;;11.95;4.00;;;;;;;4.07;63.11;100175.61;1695037;80;21169;-91
2022/02/27 03:20:01;;;;;;;11.05;4.35;;;;;;;4.06;63.23;100170.89;1714640;83;21582;-91
2022/02/27 03:22:28;;;;;;;13.30;4.87;;;;;;;4.09;63.62;100175.22;1717042;83;21020;-91
2022/02/27 03:24:55;;;;;;;12.20;5.30;;;;;;;4.07;64.06;100175.61;1712523;82;21186;-90
2022/02/27 03:27:21;;;;;;;12.10;5.28;;;;;;;4.01;64.88;100172.50;1714179;82;21064;-88
2022/02/27 03:29:48;;;;;;;19.40;6.53;;;;;;;4.01;65.26;100177.64;1721271;82;21000;-90
2022/02/27 03:32:15;;;;;;;10.03;4.92;;;;;;;3.99;65.81;100171.61;1721411;82;21051;-90
2022/02/27 03:34:41;;;;;;;13.15;5.75;;;;;;;3.97;65.67;100180.58;1714602;83;21036;-88
2022/02/27 03:37:07;;;;;;;10.50;5.42;;;;;;;3.95;65.74;100174.53;1718049;83;21162;-89
2022/02/27 03:39:34;;;;;;;14.73;5.87;;;;;;;3.90;66.08;100174.88;1718435;82;21043;-90
2022/02/27 03:42:00;;;;;;;12.90;5.72;;;;;;;3.89;66.26;100173.56;1714209;83;21020;-91
2022/02/27 03:44:27;;;;;;;13.80;6.05;;;;;;;3.86;66.33;100173.09;1715628;82;21030;-89
2022/02/27 03:46:53;;;;;;;12.53;5.85;;;;;;;3.83;67.07;100174.73;1727391;82;21001;-89
2022/02/27 03:49:20;;;;;;;12.98;6.00;;;;;;;3.79;66.68;100174.66;1720171;83;21085;-90
2022/02/27 03:51:47;;;;;;;11.78;5.40;;;;;;;3.74;67.08;100168.58;1720972;83;21000;-88
2022/02/27 03:54:13;;;;;;;10.78;5.12;;;;;;;3.72;67.57;100172.82;1714512;84;21016;-86
2022/02/27 03:56:40;;;;;;;15.43;5.33;;;;;;;3.68;68.07;100176.17;1716684;84;21123;-84
2022/02/27 03:59:06;;;;;;;10.08;5.30;;;;;;;3.71;67.81;100171.50;1719961;82;21007;-85
2022/02/27 04:01:33;;;;;;;9.25;4.80;;;;;;;3.67;67.94;100171.84;1730450;82;21584;-88
2022/02/27 04:04:00;;;;;;;10.15;5.30;;;;;;;3.69;67.96;100174.03;1724034;82;21004;-89
2022/02/27 04:06:27;;;;;;;9.78;4.90;;;;;;;3.71;68.05;100166.35;1708563;81;21202;-88
2022/02/27 04:08:53;;;;;;;12.80;4.87;;;;;;;3.72;67.82;100169.36;1710107;82;21099;-88
2022/02/27 04:11:20;;;;;;;11.85;4.83;;;;;;;3.69;67.92;100174.45;1706430;82;21066;-90
2022/02/27 04:13:47;;;;;;;12.98;5.33;;;;;;;3.69;67.41;100170.60;1708185;80;21508;-89
2022/02/27 04:16:14;;;;;;;12.43;5.05;;;;;;;3.68;67.27;100171.42;1706606;83;21349;-89
2022/02/27 04:18:41;;;;;;;11.78;5.55;;;;;;;3.66;67.11;100175.67;1714434;82;21044;-92
2022/02/27 04:21:07;;;;;;;11.12;5.35;;;;;;;3.65;67.03;100172.23;1704445;83;21076;-91
2022/02/27 04:23:34;;;;;;;12.85;4.85;;;;;;;3.62;67.18;100171.30;1709564;82;21360;-91
2022/02/27 04:26:01;;;;;;;14.55;5.50;;;;;;;3.59;67.12;100177.26;1725156;82;21040;-88
2022/02/27 04:28:27;;;;;;;11.95;5.12;;;;;;;3.57;67.31;100175.08;1710745;82;21044;-90
2022/02/27 04:30:54;;;;;;;16.67;4.78;;;;;;;3.57;67.13;100177.64;1708503;83;20984;-90
2022/02/27 04:33:20;;;;;;;10.88;5.15;;;;;;;3.54;67.46;100177.17;1708954;83;21064;-90
2022/02/27 04:35:47;;;;;;;12.07;5.17;;;;;;;3.54;67.16;100182.31;1709189;83;21008;-90
2022/02/27 04:38:13;;;;;;;14.40;4.95;;;;;;;3.55;67.32;100184.46;1696729;83;21856;-88
2022/02/27 04:40:40;;;;;;;11.48;4.87;;;;;;;3.53;67.15;100177.14;1707865;84;21049;-90
2022/02/27 04:43:07;;;;;;;8.50;4.37;;;;;;;3.52;66.87;100177.56;1714400;83;21031;-90
2022/02/27 04:45:33;;;;;;;12.20;5.20;;;;;;;3.51;66.87;100175.81;1709728;83;21036;-89
2022/02/27 04:48:00;;;;;;;14.25;4.85;;;;;;;3.52;66.55;100174.09;1707886;83;21497;-90
2022/02/27 04:50:27;;;;;;;12.05;5.17;;;;;;;3.50;66.43;100182.20;1707304;82;21033;-89
2022/02/27 04:52:53;;;;;;;10.03;4.80;;;;;;;3.54;66.11;100183.61;1660952;86;21096;-89
2022/02/27 04:55:20;;;;;;;14.33;5.33;;;;;;;3.50;66.17;100189.52;1634668;87;21046;-89
2022/02/27 04:57:47;;;;;;;10.85;4.95;;;;;;;3.49;66.35;100186.91;1663031;85;21031;-90
2022/02/27 05:00:14;;;;;;;11.28;4.83;;;;;;;3.49;66.02;100200.63;1656955;87;21065;-91
2022/02/27 05:02:41;;;;;;;7.85;4.33;;;;;;;3.49;66.18;100203.19;1653758;87;20997;-91
2022/02/27 05:05:09;;;;;;;12.80;5.05;;;;;;;3.48;65.97;100199.30;1657637;86;22189;-90
2022/02/27 05:07:36;;;;;;;12.00;4.78;;;;;;;3.51;65.88;100200.66;1670688;85;21509;-89
2022/02/27 05:10:05;;;;;;;7.87;4.35;;;;;;;3.49;65.58;100206.19;1664200;86;21548;-89
2022/02/27 05:12:33;;;;;;;16.20;5.25;;;;;;;3.47;65.81;100214.29;1724454;83;21183;-89
2022/02/27 05:15:00;;;;;;;11.97;4.78;;;;;;;3.47;65.90;100219.00;1646033;83;21094;-89
2022/02/27 05:17:26;;;;;;;12.63;4.78;;;;;;;3.49;65.15;100216.48;1652343;86;21585;-89
2022/02/27 05:19:53;;;;;;;9.25;4.47;;;;;;;3.45;65.11;100228.81;1634250;87;21023;-89
2022/02/27 05:22:19;;;;;;;9.70;4.60;;;;;;;3.47;64.30;100234.86;1639519;86;21584;-89
2022/02/27 05:24:46;;;;;;;10.80;4.65;;;;;;;3.49;64.87;100237.05;1671962;84;22136;-90
2022/02/27 05:27:12;;;;;;;12.47;4.47;;;;;;;3.49;64.82;100243.05;1671754;84;21080;-90
2022/02/27 05:29:39;;;;;;;11.55;5.05;;;;;;;3.47;65.11;100242.57;1671536;86;21206;-89
2022/02/27 05:32:06;;;;;;;20.43;5.15;;;;;;;3.48;64.86;100246.47;1671483;85;21054;-89
2022/02/27 05:34:33;;;;;;;10.63;5.10;;;;;;;3.48;64.88;100246.47;1678990;84;21578;-87
2022/02/27 05:36:59;;;;;;;12.15;5.53;;;;;;;3.49;65.00;100248.61;1672069;84;21039;-89
2022/02/27 05:39:26;;;;;;;11.90;5.15;;;;;;;3.48;65.12;100252.90;1670806;84;21070;-87
2022/02/27 05:41:52;;;;;;;15.93;5.37;;;;;;;3.46;65.06;100254.95;1693875;84;21106;-89
2022/02/27 05:44:19;;;;;;;14.03;4.60;;;;;;;3.45;65.18;100254.52;1671198;84;21047;-89
2022/02/27 05:46:46;;;;;;;11.90;5.10;;;;;;;3.43;65.15;100263.48;1671774;84;21046;-88
2022/02/27 05:49:12;;;;;;;9.08;4.92;;;;;;;3.39;65.50;100265.11;1672410;84;21027;-89
2022/02/27 05:51:39;;;;;;;10.00;4.95;;;;;;;3.44;65.35;100261.34;1671778;84;21557;-88
2022/02/27 05:54:06;;;;;;;13.45;5.00;;;;;;;3.42;65.28;100267.30;1676712;84;21067;-88
2022/02/27 05:56:32;;;;;;;11.73;4.33;;;;;;;3.41;64.61;100274.57;1686185;84;21130;-87
2022/02/27 05:58:58;;;;;;;9.15;4.35;;;;;;;3.44;64.84;100282.34;1672181;84;21055;-89
2022/02/27 06:01:25;;;;;;;8.83;4.40;;;;;;;3.46;64.95;100284.53;1655881;84;21058;-89
2022/02/27 06:03:51;;;;;;;10.30;5.00;;;;;;;3.46;64.53;100281.95;1672498;84;21027;-89
2022/02/27 06:06:17;;;;;;;11.90;4.97;;;;;;;3.50;64.84;100278.62;1679242;84;21550;-90
2022/02/27 06:08:44;;;;;;;12.60;5.03;;;;;;;3.48;64.67;100282.47;1671576;85;21043;-88
2022/02/27 06:11:11;;;;;;;11.68;4.85;;;;;;;3.50;64.23;100287.22;1646491;86;21047;-87
2022/02/27 06:13:37;;;;;;;15.83;4.65;;;;;;;3.49;64.20;100294.89;1669563;85;21139;-90
2022/02/27 06:16:04;;;;;;;13.03;4.75;;;;;;;3.51;64.11;100295.80;1676723;85;21078;-89
2022/02/27 06:18:30;;;;;;;12.70;5.20;;;;;;;3.54;64.34;100295.84;1660400;85;21075;-89
2022/02/27 06:20:57;;;;;;;8.68;4.25;;;;;;;3.55;63.62;100300.17;1671861;85;21031;-88
2022/02/27 06:23:24;;;;;;;10.30;4.45;;;;;;;3.54;63.57;100303.17;1669289;83;21012;-88
2022/02/27 06:25:50;;;;;;;8.48;4.75;;;;;;;3.56;64.00;100305.36;1687989;83;21050;-88
2022/02/27 06:28:17;;;;;;;13.08;5.00;;;;;;;3.57;63.77;100304.51;1687955;85;21606;-89
2022/02/27 06:30:43;;;;;;;8.98;4.55;;;;;;;3.60;63.66;100306.27;1695544;83;21047;-90
2022/02/27 06:33:10;;;;;;;10.58;4.85;;;;;;;3.61;63.48;100304.59;1673155;83;21032;-90
2022/02/27 06:35:36;;;;;;;17.70;5.60;;;;;;;3.63;62.95;100305.06;1686172;85;21094;-88
2022/02/27 06:38:03;;;;;;;12.03;5.37;;;;;;;3.66;62.83;100310.69;1682392;85;21052;-89
2022/02/27 06:40:30;;;;;;;11.28;5.65;;;;;;;3.71;62.93;100311.25;1695707;85;21083;-90
2022/02/27 06:42:56;;;;;;;12.68;5.55;;;;;;;3.76;62.96;100311.34;1670218;83;21052;-88
2022/02/27 06:45:23;;;;;;;11.03;4.80;;;;;;;3.78;61.99;100313.12;1689305;85;21491;-90
2022/02/27 06:47:49;;;;;;;13.43;6.03;;;;;;;3.84;62.96;100320.52;1681488;83;21091;-89
2022/02/27 06:50:16;;;;;;;11.33;4.50;;;;;;;3.85;63.03;100315.41;1674112;85;21052;-89
2022/02/27 06:52:42;;;;;;;12.47;5.40;;;;;;;3.85;62.62;100321.84;1668271;85;21068;-89
2022/02/27 06:55:15;;;;;;;15.08;5.60;;;;;;;3.92;62.45;100318.97;1663964;85;21047;-90
2022/02/27 06:57:40;;;;;;;13.83;5.53;;;;;;;3.92;62.72;100323.72;1660400;83;21167;-89
2022/02/27 07:00:09;;;;;;;12.18;5.83;;;;;;;3.96;62.77;100318.23;1661126;85;21043;-88
2022/02/27 07:02:36;;;;;;;15.18;6.10;;;;;;;3.98;62.66;100317.41;1663539;82;21050;-87
2022/02/27 07:05:03;;;;;;;13.68;5.58;;;;;;;4.03;62.69;100322.65;1702581;84;21500;-89
2022/02/27 07:07:30;;;;;;;14.43;6.33;;;;;;;4.07;62.59;100315.87;1735278;81;21074;-88
2022/02/27 07:10:00;;;;;;;11.73;6.03;;;;;;;4.09;62.34;100314.20;1740173;79;21095;-88
2022/02/27 07:12:30;;;;;;;16.12;5.67;;;;;;;4.16;62.31;100316.92;1713600;82;21090;-90
2022/02/27 07:14:58;;;;;;;15.30;5.60;;;;;;;4.21;61.37;100323.45;1711979;80;21103;-86
2022/02/27 07:17:25;;;;;;;11.48;5.62;;;;;;;4.32;62.38;100319.39;1697415;81;21594;-89
2022/02/27 07:19:53;;;;;;;14.78;5.20;;;;;;;4.35;61.28;100316.86;1698830;82;21203;-89
2022/02/27 07:22:20;;;;;;;11.68;5.20;;;;;;;4.47;61.85;100314.95;1684577;81;21068;-88
2022/02/27 07:24:48;;;;;;;16.07;5.65;;;;;;;4.58;59.55;100315.16;1688258;83;21082;-89
2022/02/27 07:27:15;;;;;;;16.62;6.50;;;;;;;4.72;61.61;100309.84;1692616;81;21150;-88
2022/02/27 07:29:42;;;;;;;17.27;6.60;;;;;;;4.84;61.57;100311.77;1617141;84;21061;-87
2022/02/27 07:32:14;;;;;;;13.48;5.40;;;;;;;4.92;60.92;100314.06;1674785;83;21105;-90
2022/02/27 07:34:42;;;;;;;10.45;4.53;;;;;;;4.97;61.40;100306.39;1635822;84;21286;-88
2022/02/27 07:37:09;;;;;;;11.68;4.65;;;;;;;5.04;59.21;100305.67;1633542;85;21185;-88
2022/02/27 07:39:35;;;;;;;10.25;3.87;;;;;;;5.13;60.21;100306.23;1637489;86;21044;-86
2022/02/27 07:42:02;;;;;;;12.90;4.97;;;;;;;5.14;58.86;100310.56;1665258;81;21101;-88
2022/02/27 07:44:29;;;;;;;11.35;4.03;;;;;;;5.17;58.39;100311.87;1668462;86;21134;-92
2022/02/27 07:46:56;;;;;;;9.00;3.37;;;;;;;5.25;57.40;100309.03;1668364;86;21591;-92
2022/02/27 07:49:22;;;;;;;7.08;3.22;;;;;;;5.36;56.92;100314.34;1668412;86;21077;-90
2022/02/27 07:51:49;;;;;;;8.85;3.37;;;;;;;5.42;54.90;100314.86;1668585;85;21061;-92
2022/02/27 07:54:16;;;;;;;5.92;2.85;;;;;;;5.47;55.55;100315.78;1667296;84;21094;-91
2022/02/27 07:56:43;;;;;;;8.10;3.02;;;;;;;5.46;54.66;100309.77;1665014;82;21089;-89
2022/02/27 07:59:10;;;;;;;9.73;2.95;;;;;;;5.48;54.45;100312.38;1665015;86;21533;-89
2022/02/27 08:01:36;;;;;;;7.85;3.05;;;;;;;5.51;53.92;100311.11;1665892;84;21073;-89
2022/02/27 08:04:03;;;;;;;8.53;3.95;;;;;;;5.54;53.07;100310.74;1663384;84;21043;-90
2022/02/27 08:06:29;;;;;;;8.70;2.95;;;;;;;5.58;53.87;100314.24;1666495;85;21097;-87
2022/02/27 08:09:00;;;;;;;6.47;3.02;;;;;;;5.66;53.09;100316.51;1664538;84;21502;-87
2022/02/27 08:11:24;;;;;;;8.05;3.20;;;;;;;5.60;51.64;100311.27;1666534;83;21159;-88
2022/02/27 08:13:50;;;;;;;5.42;2.98;;;;;;;5.64;51.63;100303.15;1633834;87;21025;-89
2022/02/27 08:16:17;;;;;;;9.53;3.65;;;;;;;5.67;52.35;100303.17;1676087;85;21595;-88
2022/02/27 08:18:43;;;;;;;6.45;2.98;;;;;;;5.73;53.42;100306.73;1677145;85;21132;-89
2022/02/27 08:21:09;;;;;;;7.15;3.00;;;;;;;5.77;50.90;100295.60;1660896;86;21049;-89
2022/02/27 08:23:36;;;;;;;10.85;3.10;;;;;;;5.86;51.15;100304.31;1677814;84;20972;-89
2022/02/27 08:26:03;;;;;;;8.95;2.83;;;;;;;5.94;52.27;100302.69;1660881;86;21085;-88
2022/02/27 08:28:30;;;;;;;7.20;3.30;;;;;;;5.98;51.18;100301.48;1640352;84;21133;-85
2022/02/27 08:30:59;;;;;;;6.55;2.65;;;;;;;6.06;52.27;100297.71;1692988;83;21156;-87
2022/02/27 08:33:27;;;;;;;10.10;3.42;;;;;;;6.06;49.01;100300.73;1693053;82;21061;-88
2022/02/27 08:35:57;;;;;;;12.63;4.10;;;;;;;6.11;49.95;100297.80;1697408;82;21129;-90
2022/02/27 08:38:26;;;;;;;8.18;2.77;;;;;;;6.21;49.92;100296.16;1671074;83;21159;-88
2022/02/27 08:40:54;;;;;;;11.65;3.62;;;;;;;6.29;49.97;100291.98;1694288;83;21104;-88
2022/02/27 08:43:21;;;;;;;8.13;3.58;;;;;;;6.29;50.79;100290.69;1708334;81;21219;-87
2022/02/27 08:45:48;;;;;;;9.35;3.10;;;;;;;6.37;50.47;100292.92;1692683;81;21115;-89
2022/02/27 08:48:16;;;;;;;8.00;2.98;;;;;;;6.47;50.60;100287.00;1710691;83;21048;-86
2022/02/27 08:50:42;;;;;;;8.68;3.35;;;;;;;6.50;50.32;100290.03;1702126;82;21145;-89
2022/02/27 08:53:09;;;;;;;7.85;3.42;;;;;;;6.46;50.75;100280.52;1683305;85;21684;-92
2022/02/27 08:55:35;;;;;;;9.25;3.60;;;;;;;6.53;49.86;100283.19;1704463;84;21007;-92
2022/02/27 08:58:02;;;;;;;6.70;3.30;;;;;;;6.66;49.73;100282.02;1727429;83;21070;-91
2022/02/27 09:00:29;;;;;;;6.92;3.17;;;;;;;6.73;48.19;100277.36;1675185;84;21059;-91
2022/02/27 09:02:55;;;;;;;10.48;3.10;;;;;;;6.73;49.74;100270.90;1701700;79;21055;-89
2022/02/27 09:05:22;;;;;;;8.35;3.00;;;;;;;6.81;48.96;100270.54;1686182;84;21013;-90
2022/02/27 09:07:48;;;;;;;7.33;3.52;;;;;;;6.87;47.93;100271.88;1694608;84;21478;-89
2022/02/27 09:10:15;;;;;;;10.53;3.75;;;;;;;6.62;47.81;100246.23;1731878;82;21011;-89
2022/02/27 09:12:44;;;;;;;9.83;3.80;;;;;;;6.91;49.31;100271.05;1794888;79;21016;-88
2022/02/27 09:15:13;;;;;;;8.23;3.70;;;;;;;7.07;49.22;100273.78;1741991;79;21079;-87
2022/02/27 09:17:40;;;;;;;6.87;3.50;;;;;;;7.11;48.63;100279.41;1765949;81;21074;-91
2022/02/27 09:20:08;;;;;;;8.93;3.30;;;;;;;7.13;47.82;100268.65;1764641;79;20956;-89
2022/02/27 09:22:35;;;;;;;6.12;3.15;;;;;;;7.09;47.42;100259.14;1763419;79;21083;-89
2022/02/27 09:25:03;;;;;;;7.90;3.33;;;;;;;7.08;46.82;100267.73;1754498;79;21079;-90
2022/02/27 09:27:31;;;;;;;5.45;2.67;;;;;;;7.14;46.59;100264.80;1737063;82;21051;-89
2022/02/27 09:29:57;;;;;;;11.65;4.45;;;;;;;7.19;45.78;100251.02;1729299;82;21034;-88
2022/02/27 09:32:24;;;;;;;7.45;3.52;;;;;;;7.19;46.94;100258.34;1698952;81;21063;-88
2022/02/27 09:34:50;;;;;;;5.20;2.75;;;;;;;7.34;46.97;100258.87;1730320;83;21125;-88
2022/02/27 09:37:17;;;;;;;4.40;2.40;;;;;;;7.40;46.21;100254.17;1692898;83;21006;-87
2022/02/27 09:39:43;;;;;;;7.20;2.90;;;;;;;7.48;45.38;100248.61;1727612;82;21039;-88
2022/02/27 09:42:10;;;;;;;5.85;2.77;;;;;;;7.53;45.48;100251.66;1733429;82;20995;-91
2022/02/27 09:44:41;;;;;;;5.08;2.60;;;;;;;7.46;43.51;100253.80;1750927;81;21165;-90
2022/02/27 09:47:12;;;;;;;4.72;2.20;;;;;;;7.45;44.10;100244.73;1715536;83;21110;-87
2022/02/27 09:49:46;;;;;;;4.75;2.27;;;;;;;7.53;44.90;100246.92;1717713;81;21082;-91
2022/02/27 09:52:16;;;;;;;4.87;2.05;;;;;;;7.46;43.71;100249.03;1637497;83;21100;-90
2022/02/27 09:54:44;;;;;;;9.78;3.20;;;;;;;7.47;43.04;100237.84;1634407;84;21143;-91
2022/02/27 09:57:19;;;;;;;9.05;3.35;;;;;;;7.49;44.86;100236.13;1660889;84;21095;-91
2022/02/27 09:59:49;;;;;;;7.67;2.90;;;;;;;7.53;43.41;100229.67;1694117;81;21070;-90
2022/02/27 10:02:16;;;;;;;6.90;2.72;;;;;;;7.67;44.67;100232.33;1746655;81;21110;-90
2022/02/27 10:04:48;;;;;;;5.67;2.30;;;;;;;7.57;41.81;100231.84;1748933;82;21070;-88
2022/02/27 10:07:20;;;;;;;7.67;2.70;;;;;;;7.60;43.44;100225.41;1735369;82;21139;-89
2022/02/27 10:09:48;;;;;;;4.72;2.55;;;;;;;7.53;41.15;100225.78;1719082;80;21148;-89
2022/02/27 10:12:19;;;;;;;14.98;4.83;;;;;;;7.46;43.18;100226.63;1705963;82;21229;-85
2022/02/27 10:15:08;;;;;;;7.72;2.98;;;;;;;7.37;42.33;100217.08;1726711;82;21130;-90
2022/02/27 10:17:40;;;;;;;4.85;2.05;;;;;;;7.39;42.19;100218.82;1673796;83;21110;-92
2022/02/27 10:20:13;;;;;;;9.80;3.27;;;;;;;7.39;43.50;100205.88;1710045;82;21146;-90
2022/02/27 10:22:46;;;;;;;8.08;3.40;;;;;;;7.42;43.21;100202.00;1703208;83;21111;-91
2022/02/27 10:25:24;;;;;;;6.72;2.40;;;;;;;7.51;43.90;100197.74;1717369;82;21595;-91
2022/02/27 10:28:17;;;;;;;9.38;4.12;;;;;;;7.54;42.36;100205.94;1732365;83;21068;-89
2022/02/27 10:30:44;;;;;;;6.53;3.12;;;;;;;7.55;42.81;100194.75;1712790;82;21070;-87
2022/02/27 10:33:11;;;;;;;16.57;5.67;;;;;;;7.64;42.33;100188.73;1740556;81;21102;-91
2022/02/27 10:35:51;;;;;;;9.05;3.40;;;;;;;7.66;41.44;100182.73;1734610;80;21143;-89
2022/02/27 10:38:45;;;;;;;7.33;2.92;;;;;;;7.75;42.89;100188.36;1707842;82;21163;-91
2022/02/27 10:41:21;;;;;;;8.68;2.35;;;;;;;7.77;40.99;100182.32;1695777;82;21187;-87
2022/02/27 10:43:46;;;;;;;8.10;2.75;;;;;;;7.92;41.03;100178.94;1691063;84;21086;-88
2022/02/27 10:46:15;;;;;;;9.43;4.65;;;;;;;7.96;41.14;100178.52;1694979;83;21445;-87
2022/02/27 10:48:42;;;;;;;16.82;6.03;;;;;;;8.05;42.71;100173.34;1656081;83;21157;-90
2022/02/27 10:51:13;;;;;;;21.02;7.05;;;;;;;8.22;42.07;100162.18;1603150;87;21039;-91
2022/02/27 10:53:44;;;;;;;13.18;4.42;;;;;;;8.31;42.81;100164.32;1659145;84;21131;-87
2022/02/27 10:56:16;;;;;;;13.22;5.12;;;;;;;8.50;40.69;100156.18;1642321;85;21076;31
2022/02/27 10:58:48;;;;;;;5.58;2.50;;;;;;;8.57;38.81;100153.14;1678666;85;21575;-90
2022/02/27 11:01:22;;;;;;;8.33;3.30;;;;;;;8.61;38.85;100152.72;1685055;83;21179;-88
2022/02/27 11:03:54;;;;;;;14.15;5.53;;;;;;;8.55;39.41;100149.69;1638549;84;21623;-87
2022/02/27 11:06:23;;;;;;;12.03;5.77;;;;;;;8.59;39.75;100144.94;1654695;86;21038;-85
2022/02/27 11:08:50;;;;;;;27.45;11.28;;;;;;;8.63;40.52;100150.98;1678025;86;21268;-85
2022/02/27 11:11:17;;;;;;;10.85;4.10;;;;;;;8.71;39.22;100151.84;1699584;83;21146;-90
2022/02/27 11:13:47;;;;;;;11.30;4.45;;;;;;;8.73;39.05;100143.63;1699058;84;21530;-90
2022/02/27 11:16:15;;;;;;;8.88;4.70;;;;;;;8.82;39.43;100145.37;1734239;82;21069;-90
2022/02/27 11:18:43;;;;;;;9.55;3.25;;;;;;;8.92;38.79;100136.27;1718072;82;21102;-89
2022/02/27 11:21:10;;;;;;;11.85;5.03;;;;;;;9.02;39.43;100130.63;1696644;83;21137;-91
2022/02/27 11:23:39;;;;;;;10.58;4.30;;;;;;;9.14;38.59;100138.82;1713855;81;21187;-89
2022/02/27 11:26:06;;;;;;;15.03;4.90;;;;;;;9.39;38.70;100137.44;1697878;80;21099;-91
2022/02/27 11:28:36;;;;;;;11.65;5.58;;;;;;;9.64;39.21;100130.42;1692075;84;21476;-91
2022/02/27 11:31:05;;;;;;;7.92;4.45;;;;;;;9.75;35.87;100128.20;1690529;81;21071;-90
2022/02/27 11:33:32;;;;;;;10.08;4.30;;;;;;;9.90;37.45;100123.79;1659921;83;21592;-92